Time;durP1;ratioP1;P1;durP2;ratioP2;P2;SDS_P1;SDS_P2;PMS_P1;PMS_P2;Temp;Humidity;BMP_temperature;BMP_pressure;BME280_temperature;BME280_humidity;BME280_pressure;Samples;Min_cycle;Max_cycle;Signal;HPM_P1;HPM_P2
2022/09/20 00:01:45;;;;;;;7.30;5.43;;;;;;;;;;754039;184;936145;-53
2022/09/20 00:04:11;;;;;;;9.80;6.20;;;;;;;;;;755919;184;816858;-53
2022/09/20 00:06:37;;;;;;;7.73;6.00;;;;;;;;;;752593;185;807440;-53
2022/09/20 00:09:03;;;;;;;10.53;5.83;;;;;;;;;;755266;184;909848;-53
2022/09/20 00:11:29;;;;;;;7.70;5.33;;;;;;;;;;753610;184;914275;-54
2022/09/20 00:13:55;;;;;;;7.73;4.93;;;;;;;;;;759012;182;811552;-53
2022/09/20 00:16:21;;;;;;;6.70;5.23;;;;;;;;;;752571;181;875137;-52
2022/09/20 00:18:48;;;;;;;5.27;4.60;;;;;;;;;;750970;184;927894;-53
2022/09/20 00:21:17;;;;;;;13.90;5.13;;;;;;;;;;753365;182;941458;-53
2022/09/20 00:23:43;;;;;;;5.90;5.03;;;;;;;;;;751902;184;919305;-54
2022/09/20 00:26:08;;;;;;;6.53;4.80;;;;;;;;;;753907;184;919172;-55
2022/09/20 00:28:34;;;;;;;5.70;4.70;;;;;;;;;;753294;182;819995;-55
2022/09/20 00:31:00;;;;;;;8.00;4.80;;;;;;;;;;760501;184;918490;-54
2022/09/20 00:35:06;;;;;;;5.87;4.07;;;;;;;;;;755029;184;918143;-54
2022/09/20 00:35:54;;;;;;;6.13;4.20;;;;;;;;;;754777;184;938768;-54
2022/09/20 00:38:19;;;;;;;6.53;4.60;;;;;;;;;;755834;184;820189;-54
2022/09/20 00:40:45;;;;;;;7.20;4.93;;;;;;;;;;755792;184;919731;-55
2022/09/20 00:43:13;;;;;;;7.43;4.63;;;;;;;;;;750798;183;920422;-54
2022/09/20 00:45:39;;;;;;;9.88;5.28;;;;;;;;;;754790;184;917097;-55
2022/09/20 00:48:06;;;;;;;5.60;4.50;;;;;;;;;;765079;182;919130;-54
2022/09/20 00:50:32;;;;;;;8.00;4.55;;;;;;;;;;751478;185;919804;-54
2022/09/20 00:53:04;;;;;;;7.63;4.83;;;;;;;;;;753156;184;940509;-55
2022/09/20 00:55:30;;;;;;;7.13;4.03;;;;;;;;;;754001;185;916301;-54
2022/09/20 00:57:56;;;;;;;7.23;4.83;;;;;;;;;;754881;184;817060;-54
2022/09/20 01:00:22;;;;;;;8.07;5.05;;;;;;;;;;753254;184;870679;-54
2022/09/20 01:02:47;;;;;;;6.97;5.07;;;;;;;;;;754399;184;918504;-55
2022/09/20 01:05:13;;;;;;;5.77;4.77;;;;;;;;;;755870;183;920186;-55
2022/09/20 01:07:39;;;;;;;6.63;4.63;;;;;;;;;;750842;182;919816;-55
2022/09/20 01:10:05;;;;;;;7.57;4.90;;;;;;;;;;748247;185;921177;-56
2022/09/20 01:12:33;;;;;;;6.23;4.50;;;;;;;;;;761155;184;820951;-54
2022/09/20 01:14:57;;;;;;;5.23;4.50;;;;;;;;;;753904;184;921783;-55
2022/09/20 01:17:23;;;;;;;6.90;4.60;;;;;;;;;;752098;184;919110;-55
2022/09/20 01:19:49;;;;;;;7.47;5.03;;;;;;;;;;753450;185;922011;-54
2022/09/20 01:22:17;;;;;;;6.53;4.80;;;;;;;;;;751674;184;921236;-54
2022/09/20 01:24:44;;;;;;;5.87;4.17;;;;;;;;;;753909;184;919214;-54
2022/09/20 01:27:16;;;;;;;7.93;5.07;;;;;;;;;;750245;182;921001;-54
2022/09/20 01:29:42;;;;;;;6.70;5.17;;;;;;;;;;755853;185;923599;-53
2022/09/20 01:32:08;;;;;;;7.53;4.90;;;;;;;;;;742615;187;918165;-53
2022/09/20 01:34:34;;;;;;;6.27;4.33;;;;;;;;;;749376;185;920375;-54
2022/09/20 01:37:04;;;;;;;6.20;4.40;;;;;;;;;;759143;184;920501;-53
2022/09/20 01:39:45;;;;;;;6.03;4.23;;;;;;;;;;753638;184;919062;-53
2022/09/20 01:42:10;;;;;;;7.73;4.40;;;;;;;;;;761626;184;817185;-54
2022/09/20 01:44:38;;;;;;;5.90;4.57;;;;;;;;;;747726;182;920042;-54
2022/09/20 01:47:05;;;;;;;5.63;4.43;;;;;;;;;;750328;183;919449;-54
2022/09/20 01:49:48;;;;;;;6.03;4.63;;;;;;;;;;757145;181;817674;-54
2022/09/20 01:52:33;;;;;;;7.00;5.13;;;;;;;;;;761201;184;916329;-54
2022/09/20 01:55:05;;;;;;;7.10;5.00;;;;;;;;;;758741;184;915291;-54
2022/09/20 01:57:44;;;;;;;6.43;4.75;;;;;;;;;;755431;184;915683;-54
2022/09/20 02:00:10;;;;;;;5.63;4.70;;;;;;;;;;752603;184;924157;-54
2022/09/20 02:02:52;;;;;;;8.30;5.30;;;;;;;;;;755068;184;920012;-54
2022/09/20 02:05:23;;;;;;;9.70;6.33;;;;;;;;;;750266;184;828343;-54
2022/09/20 02:07:55;;;;;;;9.33;6.23;;;;;;;;;;753015;184;919798;-54
2022/09/20 02:10:25;;;;;;;7.03;4.80;;;;;;;;;;760649;184;822479;-54
2022/09/20 02:12:51;;;;;;;10.23;6.15;;;;;;;;;;755277;185;816989;-54
2022/09/20 02:15:22;;;;;;;6.43;5.13;;;;;;;;;;751414;182;919228;-54
2022/09/20 02:18:08;;;;;;;7.57;5.50;;;;;;;;;;747442;185;820273;-54
2022/09/20 02:20:52;;;;;;;7.97;5.87;;;;;;;;;;756216;184;819689;-54
2022/09/20 02:23:21;;;;;;;8.60;5.20;;;;;;;;;;755959;183;849003;-54
2022/09/20 02:25:52;;;;;;;7.30;5.43;;;;;;;;;;747383;182;919402;-54
2022/09/20 02:28:24;;;;;;;8.10;5.37;;;;;;;;;;752452;184;923453;-54
2022/09/20 02:30:54;;;;;;;9.33;5.90;;;;;;;;;;738754;188;919733;-54
2022/09/20 02:33:24;;;;;;;6.77;4.87;;;;;;;;;;748334;185;913707;-54
2022/09/20 02:35:59;;;;;;;6.22;4.93;;;;;;;;;;737182;184;918439;-55
2022/09/20 02:38:25;;;;;;;7.03;5.30;;;;;;;;;;749614;184;892130;-54
2022/09/20 02:41:07;;;;;;;6.30;4.70;;;;;;;;;;757902;184;919580;-53
2022/09/20 02:43:38;;;;;;;7.77;4.90;;;;;;;;;;750993;185;919057;-54
2022/09/20 02:46:07;;;;;;;6.90;5.75;;;;;;;;;;754753;184;919572;-54
2022/09/20 02:48:36;;;;;;;9.73;6.10;;;;;;;;;;747432;183;919663;-53
2022/09/20 02:51:05;;;;;;;8.47;5.47;;;;;;;;;;753253;183;919605;-54
2022/09/20 02:53:34;;;;;;;9.83;6.50;;;;;;;;;;759295;184;919362;-54
2022/09/20 02:56:15;;;;;;;8.00;6.13;;;;;;;;;;754145;183;919780;-54
2022/09/20 02:58:57;;;;;;;8.93;6.40;;;;;;;;;;754513;183;919762;-54
2022/09/20 03:01:24;;;;;;;7.80;6.43;;;;;;;;;;755646;183;919261;-55
2022/09/20 03:03:52;;;;;;;9.07;5.90;;;;;;;;;;757882;184;817754;-55
2022/09/20 03:06:24;;;;;;;10.63;6.83;;;;;;;;;;753048;184;920179;-55
2022/09/20 03:08:53;;;;;;;9.20;6.40;;;;;;;;;;757137;184;920347;-54
2022/09/20 03:11:22;;;;;;;7.97;6.23;;;;;;;;;;751344;185;909140;-54
2022/09/20 03:13:49;;;;;;;8.30;6.45;;;;;;;;;;753580;184;913051;-54
2022/09/20 03:16:16;;;;;;;8.37;5.73;;;;;;;;;;749531;182;918599;-54
2022/09/20 03:18:46;;;;;;;10.07;6.67;;;;;;;;;;760891;184;889051;-54
2022/09/20 03:21:17;;;;;;;7.67;6.30;;;;;;;;;;751977;184;919246;-54
2022/09/20 03:23:48;;;;;;;8.37;6.50;;;;;;;;;;754070;184;917426;-56
2022/09/20 03:26:18;;;;;;;9.27;5.80;;;;;;;;;;748355;184;920795;-54
2022/09/20 03:28:47;;;;;;;8.50;6.63;;;;;;;;;;756325;184;877700;-54
2022/09/20 03:31:14;;;;;;;7.60;5.90;;;;;;;;;;752491;184;891799;-53
2022/09/20 03:33:40;;;;;;;7.27;5.67;;;;;;;;;;752313;184;919326;-53
2022/09/20 03:36:13;;;;;;;9.30;6.93;;;;;;;;;;751872;184;941772;-53
2022/09/20 03:38:56;;;;;;;10.47;7.00;;;;;;;;;;751847;185;821912;-53
2022/09/20 03:41:28;;;;;;;7.80;6.20;;;;;;;;;;752807;185;911725;-53
2022/09/20 03:44:05;;;;;;;9.80;6.33;;;;;;;;;;755318;185;819493;-54
2022/09/20 03:46:32;;;;;;;6.97;5.63;;;;;;;;;;756958;184;916983;-54
2022/09/20 03:49:03;;;;;;;17.20;7.60;;;;;;;;;;751115;185;852063;-54
2022/09/20 03:51:47;;;;;;;9.87;6.90;;;;;;;;;;749212;182;919050;-54
2022/09/20 03:54:16;;;;;;;10.77;6.90;;;;;;;;;;743417;185;819981;-54
2022/09/20 03:56:42;;;;;;;9.07;6.77;;;;;;;;;;753548;186;919476;-54
2022/09/20 03:59:14;;;;;;;11.80;8.23;;;;;;;;;;755522;185;919052;-53
2022/09/20 04:01:50;;;;;;;11.23;7.37;;;;;;;;;;751860;184;628011;-54
2022/09/20 04:04:33;;;;;;;15.03;6.90;;;;;;;;;;762293;184;628609;-54
2022/09/20 04:07:01;;;;;;;12.37;7.73;;;;;;;;;;753710;184;617145;-54
2022/09/20 04:09:43;;;;;;;9.90;7.37;;;;;;;;;;752148;184;615153;-54
2022/09/20 04:12:11;;;;;;;11.73;9.07;;;;;;;;;;755013;184;917840;-53
2022/09/20 04:14:37;;;;;;;12.50;8.93;;;;;;;;;;761099;184;627487;-53
2022/09/20 04:17:23;;;;;;;10.73;7.90;;;;;;;;;;753957;184;919070;-54
2022/09/20 04:19:50;;;;;;;12.70;8.53;;;;;;;;;;755626;184;892843;-55
2022/09/20 04:22:17;;;;;;;12.47;8.70;;;;;;;;;;755616;184;918700;-54
2022/09/20 04:24:45;;;;;;;11.60;9.10;;;;;;;;;;755757;185;920907;-54
2022/09/20 04:27:11;;;;;;;11.53;9.20;;;;;;;;;;750857;185;918698;-54
2022/09/20 04:29:52;;;;;;;12.27;8.70;;;;;;;;;;751694;185;919401;-55
2022/09/20 04:32:19;;;;;;;11.70;7.90;;;;;;;;;;746882;185;920956;-54
2022/09/20 04:37:21;;;;;;;14.93;10.85;;;;;;;;;;760012;184;919078;-55
2022/09/20 04:39:46;;;;;;;13.37;9.23;;;;;;;;;;762383;179;913284;-55
2022/09/20 04:42:15;;;;;;;12.30;8.63;;;;;;;;;;749147;185;919416;-55
2022/09/20 04:44:47;;;;;;;12.20;7.80;;;;;;;;;;753882;184;919876;-54
2022/09/20 04:47:14;;;;;;;12.33;9.40;;;;;;;;;;757786;184;919775;-55
2022/09/20 04:49:53;;;;;;;14.10;9.77;;;;;;;;;;751685;184;920138;-54
2022/09/20 04:52:24;;;;;;;12.80;9.37;;;;;;;;;;752250;182;919392;-54
2022/09/20 04:54:55;;;;;;;12.80;10.30;;;;;;;;;;756047;184;918776;-54
2022/09/20 04:57:38;;;;;;;15.67;9.77;;;;;;;;;;749236;184;897101;-54
2022/09/20 05:00:06;;;;;;;15.60;10.03;;;;;;;;;;744240;185;919275;-54
2022/09/20 05:02:36;;;;;;;16.00;11.60;;;;;;;;;;752138;183;923187;-54
2022/09/20 05:05:16;;;;;;;12.70;9.57;;;;;;;;;;750473;185;920004;-54
2022/09/20 05:07:48;;;;;;;13.70;10.37;;;;;;;;;;757855;184;916341;-54
2022/09/20 05:10:15;;;;;;;17.30;10.57;;;;;;;;;;752041;184;917541;-54
2022/09/20 05:12:59;;;;;;;13.00;10.30;;;;;;;;;;750514;185;871045;-54
2022/09/20 05:15:27;;;;;;;14.97;11.80;;;;;;;;;;753060;183;823874;-55
2022/09/20 05:18:02;;;;;;;16.97;11.40;;;;;;;;;;760904;182;785872;-54
2022/09/20 05:20:33;;;;;;;14.17;10.43;;;;;;;;;;754025;184;817592;-54
2022/09/20 05:23:00;;;;;;;16.40;12.10;;;;;;;;;;751303;184;816619;-54
2022/09/20 05:25:33;;;;;;;18.70;10.97;;;;;;;;;;749650;184;919638;-54
2022/09/20 05:28:01;;;;;;;22.48;11.75;;;;;;;;;;754136;184;917265;-55
2022/09/20 05:30:33;;;;;;;16.70;11.37;;;;;;;;;;755206;184;919592;-54
2022/09/20 05:33:00;;;;;;;18.53;12.03;;;;;;;;;;760925;184;883383;-54
2022/09/20 05:35:42;;;;;;;17.60;11.90;;;;;;;;;;747800;181;917195;-54
2022/09/20 05:38:13;;;;;;;17.73;11.20;;;;;;;;;;751816;184;918596;-53
2022/09/20 05:40:43;;;;;;;20.03;11.60;;;;;;;;;;751043;185;921163;-55
2022/09/20 05:43:10;;;;;;;18.80;12.77;;;;;;;;;;751773;184;918938;-56
2022/09/20 05:45:52;;;;;;;14.50;10.87;;;;;;;;;;749740;185;919975;-54
2022/09/20 05:48:19;;;;;;;17.47;11.97;;;;;;;;;;754430;183;917841;-54
2022/09/20 05:50:51;;;;;;;16.53;11.60;;;;;;;;;;750530;182;919776;-54
2022/09/20 05:53:37;;;;;;;18.30;12.50;;;;;;;;;;748720;181;921354;-55
2022/09/20 05:56:04;;;;;;;17.20;13.20;;;;;;;;;;751989;184;918113;-55
2022/09/20 05:58:33;;;;;;;17.17;12.30;;;;;;;;;;752432;184;920050;-55
2022/09/20 06:00:59;;;;;;;17.13;12.17;;;;;;;;;;758652;185;916361;-55
2022/09/20 06:03:39;;;;;;;19.23;13.13;;;;;;;;;;746864;184;937817;-54
2022/09/20 06:06:06;;;;;;;19.20;12.87;;;;;;;;;;755087;183;919209;-54
2022/09/20 06:08:54;;;;;;;17.90;12.80;;;;;;;;;;750778;184;817907;-55
2022/09/20 06:11:19;;;;;;;19.90;14.20;;;;;;;;;;746521;185;919165;-55
2022/09/20 06:13:45;;;;;;;20.30;14.60;;;;;;;;;;755979;184;917264;-54
2022/09/20 06:16:11;;;;;;;20.50;13.50;;;;;;;;;;753030;185;917159;-54
2022/09/20 06:18:37;;;;;;;18.97;13.73;;;;;;;;;;754251;184;904406;-54
2022/09/20 06:21:04;;;;;;;22.60;16.47;;;;;;;;;;748825;185;887839;-55
2022/09/20 06:23:30;;;;;;;22.67;14.10;;;;;;;;;;758510;184;919430;-54
2022/09/20 06:25:59;;;;;;;22.80;13.67;;;;;;;;;;752879;183;817292;-54
2022/09/20 06:28:26;;;;;;;31.00;15.10;;;;;;;;;;753425;184;925448;-54
2022/09/20 06:30:51;;;;;;;28.80;15.30;;;;;;;;;;760375;184;920563;-55
2022/09/20 06:33:17;;;;;;;21.90;13.63;;;;;;;;;;750679;184;919497;-54
2022/09/20 06:35:54;;;;;;;22.90;14.57;;;;;;;;;;758211;183;919558;-56
2022/09/20 06:43:23;;;;;;;20.80;14.77;;;;;;;;;;764333;181;916037;-54
2022/09/20 06:45:49;;;;;;;27.67;14.83;;;;;;;;;;750407;185;916069;-55
2022/09/20 06:48:15;;;;;;;20.80;14.97;;;;;;;;;;747689;185;926358;-54
2022/09/20 06:50:44;;;;;;;26.20;15.83;;;;;;;;;;757706;184;817553;-54
2022/09/20 06:53:09;;;;;;;22.17;15.30;;;;;;;;;;754288;183;911185;-53
2022/09/20 06:55:36;;;;;;;25.00;17.60;;;;;;;;;;753578;184;919809;-55
2022/09/20 06:58:01;;;;;;;28.27;17.27;;;;;;;;;;754860;184;816776;-54
2022/09/20 07:00:27;;;;;;;31.67;16.93;;;;;;;;;;759972;183;894374;-54
2022/09/20 07:02:55;;;;;;;28.07;17.50;;;;;;;;;;751572;185;918203;-54
2022/09/20 07:05:21;;;;;;;29.77;17.60;;;;;;;;;;748830;185;919243;-55
2022/09/20 07:07:46;;;;;;;29.40;17.20;;;;;;;;;;759052;184;917991;-54
2022/09/20 07:10:13;;;;;;;32.80;18.73;;;;;;;;;;754887;184;919483;-54
2022/09/20 07:12:38;;;;;;;27.10;17.75;;;;;;;;;;748117;185;923908;-54
2022/09/20 07:15:05;;;;;;;34.70;17.30;;;;;;;;;;759595;184;919088;-54
2022/09/20 07:17:30;;;;;;;30.73;16.10;;;;;;;;;;752843;184;919115;-55
2022/09/20 07:19:56;;;;;;;25.93;15.30;;;;;;;;;;752420;184;927631;-54
2022/09/20 07:22:22;;;;;;;20.33;14.03;;;;;;;;;;752794;182;919685;-55
2022/09/20 07:24:48;;;;;;;24.30;17.17;;;;;;;;;;754297;185;919218;-54
2022/09/20 07:27:14;;;;;;;23.80;14.57;;;;;;;;;;756267;184;919471;-55
2022/09/20 07:29:40;;;;;;;25.25;15.13;;;;;;;;;;749778;184;919417;-56
2022/09/20 07:32:07;;;;;;;17.80;13.80;;;;;;;;;;759159;184;822045;-55
2022/09/20 07:34:32;;;;;;;20.30;13.30;;;;;;;;;;750104;180;917373;-54
2022/09/20 07:36:59;;;;;;;19.77;14.70;;;;;;;;;;750153;184;940009;-55
2022/09/20 07:39:24;;;;;;;19.13;13.47;;;;;;;;;;763000;184;817129;-55
2022/09/20 07:41:50;;;;;;;16.17;13.07;;;;;;;;;;755562;184;917098;-53
2022/09/20 07:44:20;;;;;;;14.13;10.60;;;;;;;;;;754823;184;919501;-53
2022/09/20 07:46:47;;;;;;;15.90;11.40;;;;;;;;;;754166;180;917072;-54
2022/09/20 07:49:13;;;;;;;18.40;12.60;;;;;;;;;;755153;184;816742;-53
2022/09/20 07:51:38;;;;;;;14.77;11.30;;;;;;;;;;756265;184;917688;-54
2022/09/20 07:54:04;;;;;;;16.77;10.83;;;;;;;;;;752782;184;918778;-54
2022/09/20 07:56:30;;;;;;;14.57;10.67;;;;;;;;;;758164;182;917670;-53
2022/09/20 07:58:56;;;;;;;15.93;12.20;;;;;;;;;;754390;184;918799;-53
2022/09/20 08:01:22;;;;;;;16.97;10.67;;;;;;;;;;754424;184;919124;-53
2022/09/20 08:03:48;;;;;;;15.30;11.50;;;;;;;;;;749578;185;919621;-53
2022/09/20 08:06:15;;;;;;;16.37;11.47;;;;;;;;;;751137;185;817733;-53
2022/09/20 08:08:40;;;;;;;16.53;12.30;;;;;;;;;;749108;185;927898;-54
2022/09/20 08:11:05;;;;;;;11.07;9.77;;;;;;;;;;755140;184;915932;-54
2022/09/20 08:13:34;;;;;;;14.17;10.30;;;;;;;;;;759704;184;856863;-53
2022/09/20 08:16:01;;;;;;;12.47;9.43;;;;;;;;;;755658;184;907810;-54
2022/09/20 08:18:26;;;;;;;14.63;11.10;;;;;;;;;;750577;184;913299;-55
2022/09/20 08:20:52;;;;;;;11.97;10.00;;;;;;;;;;756927;181;920065;-53
2022/09/20 08:23:18;;;;;;;12.03;9.80;;;;;;;;;;752456;184;917862;-54
2022/09/20 08:25:43;;;;;;;11.15;9.57;;;;;;;;;;752525;184;817322;-53
2022/09/20 08:28:09;;;;;;;18.70;10.80;;;;;;;;;;754295;181;920065;-53
2022/09/20 08:30:35;;;;;;;10.83;9.60;;;;;;;;;;758709;184;914139;-54
2022/09/20 08:33:01;;;;;;;16.70;11.17;;;;;;;;;;753778;184;916613;-53
2022/09/20 08:35:28;;;;;;;17.87;10.27;;;;;;;;;;756935;184;839876;-54
2022/09/20 08:37:53;;;;;;;15.73;11.50;;;;;;;;;;758050;184;919624;-53
2022/09/20 08:40:20;;;;;;;16.17;12.00;;;;;;;;;;756998;184;931227;-54
2022/09/20 08:42:44;;;;;;;11.43;9.90;;;;;;;;;;748774;182;920242;-55
2022/09/20 08:45:10;;;;;;;10.03;7.93;;;;;;;;;;757907;184;920042;-53
2022/09/20 08:47:36;;;;;;;13.80;9.17;;;;;;;;;;752608;183;918082;-54
2022/09/20 08:50:02;;;;;;;13.67;8.77;;;;;;;;;;754182;184;920211;-54
2022/09/20 08:52:29;;;;;;;12.60;8.97;;;;;;;;;;755223;184;920178;-53
2022/09/20 08:54:56;;;;;;;9.77;7.63;;;;;;;;;;757557;182;921120;-53
2022/09/20 08:57:19;;;;;;;11.37;8.03;;;;;;;;;;754404;184;921200;-54
2022/09/20 08:59:45;;;;;;;12.60;7.73;;;;;;;;;;755336;181;919269;-53
2022/09/20 09:02:14;;;;;;;7.50;6.28;;;;;;;;;;754770;184;817003;-54
2022/09/20 09:04:40;;;;;;;9.27;6.73;;;;;;;;;;754503;184;918341;-55
2022/09/20 09:07:07;;;;;;;8.60;7.00;;;;;;;;;;750960;184;920065;-53
2022/09/20 09:09:32;;;;;;;8.90;6.97;;;;;;;;;;761694;184;919607;-54
2022/09/20 09:11:57;;;;;;;8.47;7.23;;;;;;;;;;746725;183;919947;-54
2022/09/20 09:16:59;;;;;;;10.73;7.78;;;;;;;;;;748650;181;918800;-54
2022/09/20 09:19:26;;;;;;;8.10;6.80;;;;;;;;;;762477;184;920381;-54
2022/09/20 09:21:51;;;;;;;9.07;7.80;;;;;;;;;;755978;184;918112;-53
2022/09/20 09:24:17;;;;;;;8.33;7.00;;;;;;;;;;756474;184;907199;-53
2022/09/20 09:26:43;;;;;;;23.63;16.23;;;;;;;;;;752649;184;940311;-55
2022/09/20 09:29:15;;;;;;;7.17;5.83;;;;;;;;;;758654;184;919631;-54
2022/09/20 09:31:40;;;;;;;6.63;5.13;;;;;;;;;;745198;184;918960;-54
2022/09/20 09:34:21;;;;;;;4.37;3.03;;;;;;;;;;751781;184;917914;-54
2022/09/20 09:36:47;;;;;;;9.20;5.80;;;;;;;;;;751584;184;917804;-57
2022/09/20 09:39:16;;;;;;;5.70;3.17;;;;;;;;;;759710;182;913998;-56
2022/09/20 09:41:42;;;;;;;2.70;1.57;;;;;;;;;;752565;184;918903;-57
2022/09/20 09:44:22;;;;;;;3.40;1.60;;;;;;;;;;753725;181;946041;-55
2022/09/20 09:46:49;;;;;;;4.23;2.27;;;;;;;;;;751018;185;904006;-56
2022/09/20 09:49:16;;;;;;;5.28;3.60;;;;;;;;;;755933;183;819916;-56
2022/09/20 09:51:42;;;;;;;8.10;4.70;;;;;;;;;;745038;188;919608;-56
2022/09/20 09:54:08;;;;;;;7.22;4.65;;;;;;;;;;753536;182;919044;-55
2022/09/20 09:56:36;;;;;;;14.63;10.83;;;;;;;;;;748538;185;921291;-55
2022/09/20 09:59:16;;;;;;;3.60;2.90;;;;;;;;;;756703;184;918551;-54
2022/09/20 10:01:54;;;;;;;5.50;4.50;;;;;;;;;;764198;183;918931;-55
2022/09/20 10:04:21;;;;;;;6.90;3.20;;;;;;;;;;763965;184;895686;-54
2022/09/20 10:06:52;;;;;;;3.60;2.60;;;;;;;;;;757687;184;920571;-53
2022/09/20 10:09:18;;;;;;;3.70;2.90;;;;;;;;;;754911;184;924639;-54
2022/09/20 10:11:45;;;;;;;2.40;1.50;;;;;;;;;;758438;184;919772;-54
2022/09/20 10:14:16;;;;;;;3.35;2.40;;;;;;;;;;751779;184;918134;-53
2022/09/20 10:16:57;;;;;;;3.20;2.53;;;;;;;;;;755411;184;919199;-54
2022/09/20 10:19:24;;;;;;;4.93;3.13;;;;;;;;;;758032;182;919056;-54
2022/09/20 10:22:06;;;;;;;3.53;2.50;;;;;;;;;;754637;184;919130;-54
2022/09/20 10:24:34;;;;;;;5.27;3.80;;;;;;;;;;747837;185;920101;-54
2022/09/20 10:27:04;;;;;;;3.13;2.33;;;;;;;;;;756817;184;921685;-55
2022/09/20 10:29:35;;;;;;;2.83;2.10;;;;;;;;;;757940;184;922416;-55
2022/09/20 10:32:06;;;;;;;3.90;2.03;;;;;;;;;;751235;185;927014;-55
2022/09/20 10:34:46;;;;;;;3.60;2.23;;;;;;;;;;755152;180;894500;-55
2022/09/20 10:37:28;;;;;;;4.60;3.00;;;;;;;;;;757530;184;820346;-54
2022/09/20 10:39:56;;;;;;;3.43;2.40;;;;;;;;;;752252;184;918435;-54
2022/09/20 10:45:14;;;;;;;3.27;2.50;;;;;;;;;;760794;184;816799;-54
2022/09/20 10:47:58;;;;;;;3.42;2.58;;;;;;;;;;761336;185;922335;-54
2022/09/20 10:50:28;;;;;;;34.50;25.60;;;;;;;;;;760630;185;883037;-55
2022/09/20 10:53:05;;;;;;;7.60;4.87;;;;;;;;;;754210;184;920055;-55
2022/09/20 10:55:32;;;;;;;3.60;2.40;;;;;;;;;;749180;182;918635;-54
2022/09/20 10:58:19;;;;;;;3.90;2.63;;;;;;;;;;747193;181;920133;-55
2022/09/20 11:00:44;;;;;;;3.85;2.78;;;;;;;;;;741511;185;921186;-53
2022/09/20 11:03:11;;;;;;;4.50;3.10;;;;;;;;;;754877;184;919840;-55
2022/09/20 11:05:41;;;;;;;6.13;3.03;;;;;;;;;;756041;183;919349;-54
2022/09/20 11:08:07;;;;;;;12.37;8.00;;;;;;;;;;755615;184;840551;-54
2022/09/20 11:10:35;;;;;;;5.33;3.80;;;;;;;;;;753032;184;921207;-55
2022/09/20 11:13:01;;;;;;;5.07;4.07;;;;;;;;;;754897;184;918767;-54
2022/09/20 11:15:29;;;;;;;3.90;2.83;;;;;;;;;;752005;184;916919;-55
2022/09/20 11:17:55;;;;;;;6.33;2.97;;;;;;;;;;751381;184;919743;-55
2022/09/20 11:20:21;;;;;;;3.77;2.60;;;;;;;;;;754593;184;919639;-54
2022/09/20 11:22:48;;;;;;;4.03;3.10;;;;;;;;;;756470;184;817524;-54
2022/09/20 11:25:28;;;;;;;4.40;2.90;;;;;;;;;;752330;184;919040;-55
2022/09/20 11:27:55;;;;;;;5.50;3.50;;;;;;;;;;755644;184;918905;-54
2022/09/20 11:30:20;;;;;;;5.60;2.90;;;;;;;;;;753920;184;917024;-54
2022/09/20 11:32:54;;;;;;;8.38;6.50;;;;;;;;;;789175;170;819092;-53
2022/09/20 11:35:20;;;;;;;6.60;4.73;;;;;;;;;;767171;180;918684;-54
2022/09/20 11:37:46;;;;;;;5.43;4.30;;;;;;;;;;769191;180;920193;-53
2022/09/20 11:40:23;;;;;;;5.17;3.40;;;;;;;;;;768461;179;919452;-54
2022/09/20 11:42:48;;;;;;;6.67;4.67;;;;;;;;;;778693;180;919004;-53
2022/09/20 11:45:14;;;;;;;4.47;3.07;;;;;;;;;;774034;180;818026;-53
2022/09/20 11:47:41;;;;;;;9.33;3.47;;;;;;;;;;758795;183;905607;-53
2022/09/20 11:50:13;;;;;;;11.37;6.07;;;;;;;;;;759053;183;922339;-55
2022/09/20 11:52:44;;;;;;;5.93;4.50;;;;;;;;;;762367;183;919731;-54
2022/09/20 11:55:17;;;;;;;12.00;5.33;;;;;;;;;;756846;183;919532;-54
2022/09/20 11:57:42;;;;;;;8.50;4.57;;;;;;;;;;756817;183;816903;-54
2022/09/20 12:00:09;;;;;;;13.73;5.37;;;;;;;;;;759557;183;919295;-55
2022/09/20 12:02:37;;;;;;;19.47;9.93;;;;;;;;;;762236;183;921290;-55
2022/09/20 12:05:03;;;;;;;10.05;5.50;;;;;;;;;;754122;183;920974;-54
2022/09/20 12:07:29;;;;;;;7.80;5.33;;;;;;;;;;762723;182;918329;-55
2022/09/20 12:09:59;;;;;;;8.10;4.57;;;;;;;;;;754729;183;923147;-56
2022/09/20 12:12:27;;;;;;;7.93;5.17;;;;;;;;;;765154;181;816886;-55
2022/09/20 12:14:53;;;;;;;8.63;5.13;;;;;;;;;;764555;179;774683;-54
2022/09/20 12:17:25;;;;;;;9.13;4.10;;;;;;;;;;759060;183;914953;-54
2022/09/20 12:19:50;;;;;;;3.73;2.17;;;;;;;;;;757433;183;919449;-54
2022/09/20 12:22:17;;;;;;;5.60;2.83;;;;;;;;;;762053;183;833474;-54
2022/09/20 12:24:42;;;;;;;3.90;2.90;;;;;;;;;;755141;183;913139;-55
2022/09/20 12:27:14;;;;;;;8.13;3.20;;;;;;;;;;755634;181;917351;-55
2022/09/20 12:29:53;;;;;;;3.77;2.10;;;;;;;;;;763662;183;758165;-55
2022/09/20 12:32:25;;;;;;;3.20;2.43;;;;;;;;;;765220;182;872884;-54
2022/09/20 12:34:52;;;;;;;2.60;2.00;;;;;;;;;;763445;183;916175;-56
2022/09/20 12:37:18;;;;;;;6.30;2.20;;;;;;;;;;756078;183;820064;-54
2022/09/20 12:39:43;;;;;;;4.80;2.07;;;;;;;;;;757226;183;918699;-55
2022/09/20 12:42:26;;;;;;;3.70;1.50;;;;;;;;;;763947;181;817088;-53
2022/09/20 12:45:06;;;;;;;4.13;2.33;;;;;;;;;;765615;182;920980;-54
2022/09/20 12:47:31;;;;;;;3.63;2.17;;;;;;;;;;760405;182;919888;-53
2022/09/20 12:52:49;;;;;;;5.12;1.87;;;;;;;;;;754784;183;923014;-54
2022/09/20 12:55:21;;;;;;;2.37;1.62;;;;;;;;;;761870;182;921254;-53
2022/09/20 12:57:46;;;;;;;5.00;3.27;;;;;;;;;;762804;182;817323;-54
2022/09/20 13:00:12;;;;;;;6.30;3.97;;;;;;;;;;765350;183;704093;-54
2022/09/20 13:02:46;;;;;;;4.45;2.28;;;;;;;;;;758719;183;823025;-55
2022/09/20 13:05:14;;;;;;;5.97;4.10;;;;;;;;;;757858;183;928478;-53
2022/09/20 13:07:40;;;;;;;4.70;3.07;;;;;;;;;;770733;179;917091;-54
2022/09/20 13:10:22;;;;;;;7.87;4.80;;;;;;;;;;763925;183;916915;-54
2022/09/20 13:12:47;;;;;;;6.50;3.20;;;;;;;;;;775952;180;889638;-55
2022/09/20 13:15:14;;;;;;;3.67;2.50;;;;;;;;;;762799;180;920832;-54
2022/09/20 13:17:39;;;;;;;7.93;4.10;;;;;;;;;;758751;183;933900;-55
2022/09/20 13:20:05;;;;;;;6.63;3.90;;;;;;;;;;759186;183;923546;-55
2022/09/20 13:22:36;;;;;;;3.97;2.60;;;;;;;;;;758438;183;918163;-54
2022/09/20 13:25:01;;;;;;;4.70;3.73;;;;;;;;;;754817;183;919334;-54
2022/09/20 13:27:29;;;;;;;4.23;3.00;;;;;;;;;;756701;182;918418;-56
2022/09/20 13:29:55;;;;;;;5.00;3.70;;;;;;;;;;759706;184;921685;-55
2022/09/20 13:32:22;;;;;;;5.67;3.90;;;;;;;;;;754608;183;817331;-54
2022/09/20 13:34:54;;;;;;;5.60;4.00;;;;;;;;;;757931;183;918758;-54
2022/09/20 13:37:22;;;;;;;9.80;4.70;;;;;;;;;;755765;184;920212;-56
2022/09/20 13:39:46;;;;;;;12.17;7.57;;;;;;;;;;766627;183;893491;-55
2022/09/20 13:42:13;;;;;;;8.80;5.43;;;;;;;;;;757454;183;922859;-55
2022/09/20 13:44:37;;;;;;;10.23;8.33;;;;;;;;;;753818;182;922957;-56
2022/09/20 13:47:06;;;;;;;9.40;7.70;;;;;;;;;;763325;183;897863;-56
2022/09/20 13:49:32;;;;;;;44.40;22.27;;;;;;;;;;756060;183;910833;-56
2022/09/20 13:51:58;;;;;;;20.90;11.32;;;;;;;;;;758140;183;825989;-54
2022/09/20 13:54:26;;;;;;;4.83;2.60;;;;;;;;;;763311;182;916576;-55
2022/09/20 13:56:51;;;;;;;2.83;1.80;;;;;;;;;;759450;183;926864;-54
2022/09/20 13:59:18;;;;;;;3.80;2.67;;;;;;;;;;758096;183;919911;-55
2022/09/20 14:01:43;;;;;;;6.13;3.90;;;;;;;;;;761175;183;919575;-55
2022/09/20 14:04:14;;;;;;;7.00;4.07;;;;;;;;;;761736;183;884084;-54
2022/09/20 14:06:41;;;;;;;4.97;3.13;;;;;;;;;;758258;183;918378;-54
2022/09/20 14:09:06;;;;;;;11.27;6.97;;;;;;;;;;758924;183;919901;-54
2022/09/20 14:11:32;;;;;;;15.13;8.03;;;;;;;;;;762689;183;919736;-54
2022/09/20 14:13:57;;;;;;;15.67;8.00;;;;;;;;;;755295;183;920500;-56
2022/09/20 14:16:28;;;;;;;10.63;5.90;;;;;;;;;;756147;183;914585;-55
2022/09/20 14:18:56;;;;;;;6.85;3.37;;;;;;;;;;752666;184;919017;-56
2022/09/20 14:21:21;;;;;;;6.70;2.90;;;;;;;;;;760231;183;820285;-54
2022/09/20 14:23:57;;;;;;;4.23;2.90;;;;;;;;;;756777;183;919465;-54
2022/09/20 14:26:22;;;;;;;3.73;2.40;;;;;;;;;;759208;181;824422;-55
2022/09/20 14:28:48;;;;;;;4.13;2.90;;;;;;;;;;756646;183;918709;-55
2022/09/20 14:31:18;;;;;;;4.33;2.53;;;;;;;;;;760572;183;919937;-54
2022/09/20 14:33:44;;;;;;;4.53;2.50;;;;;;;;;;764204;183;918733;-55
2022/09/20 14:36:11;;;;;;;3.70;2.43;;;;;;;;;;763629;180;918186;-53
2022/09/20 14:38:36;;;;;;;2.40;1.53;;;;;;;;;;768144;183;816646;-55
2022/09/20 14:41:02;;;;;;;3.77;2.20;;;;;;;;;;775733;180;919868;-54
2022/09/20 14:43:30;;;;;;;5.60;2.10;;;;;;;;;;776892;180;818864;-55
2022/09/20 14:45:55;;;;;;;6.50;2.67;;;;;;;;;;772815;180;919262;-54
2022/09/20 14:48:31;;;;;;;5.10;2.67;;;;;;;;;;761969;184;814679;-54